Time;durP1;ratioP1;P1;durP2;ratioP2;P2;SDS_P1;SDS_P2;PMS_P1;PMS_P2;Temp;Humidity;BMP_temperature;BMP_pressure;BME280_temperature;BME280_humidity;BME280_pressure;Samples;Min_cycle;Max_cycle;Signal;HPM_P1;HPM_P2
2020/12/21 00:02:14;;;;;;;13.03;7.70;;;6.40;99.90;;;;;;5039293;28;20573;-78
2020/12/21 00:04:41;;;;;;;11.00;7.13;;;6.40;99.90;;;;;;5056777;28;20689;-78
2020/12/21 00:07:06;;;;;;;10.30;6.80;;;6.40;99.90;;;;;;5075692;28;20437;-78
2020/12/21 00:09:32;;;;;;;14.33;7.60;;;6.40;99.90;;;;;;5055778;28;20182;-77
2020/12/21 00:11:58;;;;;;;9.13;5.70;;;6.40;99.90;;;;;;5055661;28;20175;-77
2020/12/21 00:14:24;;;;;;;9.60;5.70;;;6.40;99.90;;;;;;5074482;28;20188;-78
2020/12/21 00:16:52;;;;;;;11.10;6.60;;;6.40;99.90;;;;;;5056744;28;20385;-79
2020/12/21 00:19:19;;;;;;;13.95;7.78;;;6.50;99.90;;;;;;5056365;28;20650;-78
2020/12/21 00:21:47;;;;;;;12.45;6.93;;;6.50;99.90;;;;;;5073437;28;20523;-78
2020/12/21 00:24:12;;;;;;;9.23;6.55;;;6.50;99.90;;;;;;5073359;28;20184;-79
2020/12/21 00:26:42;;;;;;;12.70;7.20;;;6.50;99.90;;;;;;5075381;28;20253;-78
2020/12/21 00:29:08;;;;;;;12.90;7.70;;;6.40;99.90;;;;;;5075138;28;20168;-78
2020/12/21 00:31:34;;;;;;;13.33;7.27;;;6.40;99.90;;;;;;5056745;28;20543;-78
2020/12/21 00:34:02;;;;;;;11.13;7.77;;;6.40;99.90;;;;;;5073127;28;20194;-78
2020/12/21 00:36:28;;;;;;;10.60;7.20;;;6.40;99.90;;;;;;5073142;28;20173;-78
2020/12/21 00:38:55;;;;;;;13.27;6.90;;;6.30;99.90;;;;;;5073248;28;20172;-78
2020/12/21 00:41:22;;;;;;;10.85;7.55;;;6.40;99.90;;;;;;5073024;28;20377;-78
2020/12/21 00:43:49;;;;;;;10.50;6.18;;;6.40;99.90;;;;;;5073343;28;20219;-78
2020/12/21 00:46:23;;;;;;;12.43;6.53;;;6.40;99.90;;;;;;5073120;28;20650;-77
2020/12/21 00:48:50;;;;;;;13.02;6.55;;;6.40;99.90;;;;;;5073074;28;20534;-78
2020/12/21 00:51:16;;;;;;;8.80;6.03;;;6.40;99.90;;;;;;5073408;28;20673;-77
2020/12/21 00:53:43;;;;;;;11.98;6.32;;;6.40;99.90;;;;;;5073333;28;20188;-77
2020/12/21 00:56:09;;;;;;;9.05;5.25;;;6.40;99.90;;;;;;5039073;28;20642;-77
2020/12/21 00:58:36;;;;;;;9.63;6.50;;;6.40;99.90;;;;;;5072986;28;20226;-78
2020/12/21 01:01:08;;;;;;;12.38;6.47;;;6.40;99.90;;;;;;5055144;28;20412;-76
2020/12/21 01:03:34;;;;;;;9.30;6.80;;;6.40;99.90;;;;;;5071707;28;20287;-78
2020/12/21 01:06:00;;;;;;;10.63;6.15;;;6.40;99.90;;;;;;5072546;28;20259;-77
2020/12/21 01:08:25;;;;;;;10.83;7.50;;;6.40;99.90;;;;;;5072524;28;20243;-78
2020/12/21 01:10:51;;;;;;;10.90;6.40;;;6.30;99.90;;;;;;5054614;28;20172;-77
2020/12/21 01:13:17;;;;;;;13.03;6.80;;;6.30;99.90;;;;;;5072431;28;20172;-78
2020/12/21 01:15:43;;;;;;;10.40;5.77;;;6.30;99.90;;;;;;5072355;28;20168;-78
2020/12/21 01:18:08;;;;;;;13.02;7.80;;;6.40;99.90;;;;;;5072480;28;20168;-78
2020/12/21 01:20:35;;;;;;;10.70;6.57;;;6.40;99.90;;;;;;5072403;28;20187;-78
2020/12/21 01:23:03;;;;;;;14.43;7.68;;;6.40;99.90;;;;;;5072151;28;20514;-77
2020/12/21 01:25:29;;;;;;;12.55;6.45;;;6.40;99.90;;;;;;5072563;28;20216;-77
2020/12/21 01:27:55;;;;;;;11.20;6.17;;;6.40;99.90;;;;;;5072167;28;20231;-78
2020/12/21 01:30:21;;;;;;;10.37;7.57;;;6.40;99.90;;;;;;5054354;28;20588;-78
2020/12/21 01:32:46;;;;;;;9.57;5.77;;;6.30;99.90;;;;;;5072147;28;20435;-78
2020/12/21 01:35:12;;;;;;;14.37;7.00;;;6.40;99.90;;;;;;5072191;28;20492;-78
2020/12/21 01:37:38;;;;;;;11.20;7.90;;;6.30;99.90;;;;;;5072125;28;20234;-77
2020/12/21 01:40:05;;;;;;;12.17;6.23;;;6.30;99.90;;;;;;5072415;28;20234;-77
2020/12/21 01:42:31;;;;;;;10.98;6.32;;;6.30;99.90;;;;;;5071735;28;20172;-78
2020/12/21 01:44:56;;;;;;;9.43;6.10;;;6.30;99.90;;;;;;5072101;28;20241;-78
2020/12/21 01:47:22;;;;;;;10.70;6.73;;;6.30;99.90;;;;;;5072179;28;20204;-78
2020/12/21 01:49:49;;;;;;;13.90;7.77;;;6.30;99.90;;;;;;5054267;28;20165;-79
2020/12/21 01:52:16;;;;;;;10.05;6.65;;;6.30;99.90;;;;;;5054112;28;21163;-77
2020/12/21 01:54:43;;;;;;;11.80;6.75;;;6.30;99.90;;;;;;5071903;28;20240;-78
2020/12/21 01:57:08;;;;;;;9.68;5.45;;;6.30;99.90;;;;;;5071964;28;20639;-77
2020/12/21 01:59:34;;;;;;;13.23;7.53;;;6.40;99.90;;;;;;5072819;28;20234;-78
2020/12/21 02:02:00;;;;;;;8.93;5.93;;;6.40;99.90;;;;;;5055449;28;20642;-78
2020/12/21 02:04:25;;;;;;;11.00;7.77;;;6.40;99.90;;;;;;5071734;28;20192;-78
2020/12/21 02:06:52;;;;;;;11.27;7.33;;;6.40;99.90;;;;;;5072144;28;20214;-78
2020/12/21 02:09:18;;;;;;;11.45;6.35;;;6.40;99.90;;;;;;5071993;28;20179;-78
2020/12/21 02:11:44;;;;;;;17.07;7.30;;;6.40;99.90;;;;;;5054175;28;20180;-78
2020/12/21 02:14:10;;;;;;;10.37;6.70;;;6.40;99.90;;;;;;5054724;28;20191;-79
2020/12/21 02:16:36;;;;;;;10.40;6.22;;;6.50;99.90;;;;;;5076014;28;20421;-77
2020/12/21 02:19:03;;;;;;;13.90;7.03;;;6.40;99.90;;;;;;5075856;28;20176;-78
2020/12/21 02:21:29;;;;;;;11.50;7.25;;;6.40;99.90;;;;;;5057555;28;20168;-78
2020/12/21 02:23:55;;;;;;;10.83;7.17;;;6.50;99.90;;;;;;5075925;28;20192;-78
2020/12/21 02:26:21;;;;;;;17.03;7.43;;;6.50;99.90;;;;;;5075596;28;20208;-78
2020/12/21 02:28:51;;;;;;;9.88;6.70;;;6.50;99.90;;;;;;5076082;28;20394;-78
2020/12/21 02:31:17;;;;;;;13.15;7.07;;;6.40;99.90;;;;;;5076038;28;20251;-77
2020/12/21 02:33:43;;;;;;;10.52;6.82;;;6.50;99.90;;;;;;5076346;28;20227;-79
2020/12/21 02:36:09;;;;;;;9.67;7.17;;;6.50;99.90;;;;;;5057590;28;20259;-78
2020/12/21 02:38:34;;;;;;;10.07;6.47;;;6.50;99.90;;;;;;5057883;28;20584;-78
2020/12/21 02:41:00;;;;;;;13.30;7.57;;;6.50;99.90;;;;;;5057601;28;20690;-79
2020/12/21 02:43:25;;;;;;;18.90;8.10;;;6.50;99.90;;;;;;5040886;28;20218;-78
2020/12/21 02:45:51;;;;;;;10.90;6.37;;;6.50;99.90;;;;;;5075453;28;20190;-79
2020/12/21 02:48:17;;;;;;;12.83;7.17;;;6.50;99.90;;;;;;5075151;28;20179;-78
2020/12/21 02:50:43;;;;;;;12.60;6.90;;;6.60;99.90;;;;;;5040822;28;20172;-77
2020/12/21 02:53:08;;;;;;;12.97;6.30;;;6.60;99.90;;;;;;5075106;28;20196;-78
2020/12/21 02:55:35;;;;;;;13.50;8.40;;;6.60;99.90;;;;;;5075219;28;20203;-78
2020/12/21 02:58:00;;;;;;;11.43;7.13;;;6.60;99.90;;;;;;5075341;28;20484;-79
2020/12/21 03:00:26;;;;;;;13.67;7.43;;;6.50;99.90;;;;;;5075332;28;20646;-78
2020/12/21 03:02:52;;;;;;;9.97;7.30;;;6.60;99.90;;;;;;5074407;28;20213;-77
2020/12/21 03:05:17;;;;;;;12.87;7.83;;;6.60;99.90;;;;;;5074711;28;20270;-78
2020/12/21 03:07:43;;;;;;;15.20;7.17;;;6.60;99.90;;;;;;5075211;28;20204;-78
2020/12/21 03:10:08;;;;;;;9.93;6.50;;;6.60;99.90;;;;;;5040107;28;20677;-78
2020/12/21 03:12:34;;;;;;;11.10;6.53;;;6.60;99.90;;;;;;5056614;28;20204;-78
2020/12/21 03:15:00;;;;;;;12.57;7.40;;;6.70;99.90;;;;;;5075919;28;20211;-78
2020/12/21 03:17:25;;;;;;;11.87;7.63;;;6.70;99.90;;;;;;5075761;28;20195;-78
2020/12/21 03:19:51;;;;;;;11.13;6.50;;;6.70;99.90;;;;;;5074818;28;20183;-78
2020/12/21 03:22:17;;;;;;;12.53;7.97;;;6.70;99.90;;;;;;5074426;28;20172;-78
2020/12/21 03:24:42;;;;;;;11.83;6.30;;;6.70;99.90;;;;;;5074718;28;20203;-77
2020/12/21 03:27:08;;;;;;;13.03;6.43;;;6.70;99.90;;;;;;5073147;28;20456;-77
2020/12/21 03:29:34;;;;;;;11.67;7.93;;;6.70;99.90;;;;;;5056222;28;20214;-77
2020/12/21 03:31:59;;;;;;;10.03;7.03;;;6.70;99.90;;;;;;5039225;28;20168;-77
2020/12/21 03:34:25;;;;;;;13.80;7.67;;;6.70;99.90;;;;;;5073925;28;20283;-77
2020/12/21 03:36:50;;;;;;;12.93;7.60;;;6.70;99.90;;;;;;5074040;28;20180;-77
2020/12/21 03:39:16;;;;;;;13.00;7.40;;;6.70;99.90;;;;;;5073984;28;20175;-77
2020/12/21 03:41:42;;;;;;;16.30;9.33;;;6.70;99.90;;;;;;5073790;28;20173;-77
2020/12/21 03:44:07;;;;;;;11.23;7.20;;;6.80;99.90;;;;;;5056133;28;20254;-77
2020/12/21 03:46:33;;;;;;;14.07;7.20;;;6.70;99.90;;;;;;5073948;28;20199;-77
2020/12/21 03:48:59;;;;;;;18.40;7.37;;;6.70;99.90;;;;;;5073666;28;20164;-77
2020/12/21 03:51:24;;;;;;;13.03;7.53;;;6.70;99.90;;;;;;5073687;28;20183;-77
2020/12/21 03:53:50;;;;;;;11.40;7.63;;;6.70;99.90;;;;;;5055680;28;20188;-77
2020/12/21 03:56:16;;;;;;;12.60;7.10;;;6.70;99.90;;;;;;5073619;28;20738;-78
2020/12/21 03:58:41;;;;;;;14.10;7.50;;;6.70;99.90;;;;;;5073711;28;20168;-78
2020/12/21 04:01:07;;;;;;;13.10;7.87;;;6.70;99.90;;;;;;5073550;28;20417;-78
2020/12/21 04:03:32;;;;;;;15.97;8.50;;;6.70;99.90;;;;;;5073520;28;20338;-78
2020/12/21 04:05:58;;;;;;;11.30;7.50;;;6.80;99.90;;;;;;5073573;28;20175;-77
2020/12/21 04:08:24;;;;;;;12.23;7.60;;;6.70;99.90;;;;;;5055629;28;20176;-77
2020/12/21 04:10:49;;;;;;;16.47;8.23;;;6.70;99.90;;;;;;5073045;28;20247;-78
2020/12/21 04:13:16;;;;;;;11.63;8.70;;;6.70;99.90;;;;;;5074360;28;20160;-77
2020/12/21 04:15:42;;;;;;;13.98;8.23;;;6.70;99.90;;;;;;5055698;28;20191;-78
2020/12/21 04:18:07;;;;;;;13.47;7.90;;;6.70;99.90;;;;;;5073118;28;20184;-77
2020/12/21 04:20:33;;;;;;;13.80;8.40;;;6.70;99.90;;;;;;5073227;28;20187;-77
2020/12/21 04:23:02;;;;;;;17.13;8.15;;;6.70;99.90;;;;;;5072835;28;20176;-77
2020/12/21 04:25:28;;;;;;;12.82;7.38;;;6.70;99.90;;;;;;5072845;28;20194;-77
2020/12/21 04:27:54;;;;;;;14.75;8.18;;;6.70;99.90;;;;;;5055218;28;20208;-77
2020/12/21 04:30:19;;;;;;;12.40;7.33;;;6.70;99.90;;;;;;5073146;28;20180;-78
2020/12/21 04:32:45;;;;;;;12.20;7.97;;;6.70;99.90;;;;;;5072718;28;20221;-77
2020/12/21 04:35:11;;;;;;;13.30;8.03;;;6.70;99.90;;;;;;5072708;28;20196;-77
2020/12/21 04:37:36;;;;;;;11.50;7.53;;;6.70;99.90;;;;;;5072574;28;20183;-78
2020/12/21 04:40:03;;;;;;;14.60;8.77;;;6.70;99.90;;;;;;5072744;28;20180;-78
2020/12/21 04:42:28;;;;;;;11.25;6.95;;;6.70;99.90;;;;;;5072715;28;20184;-78
2020/12/21 04:44:54;;;;;;;13.30;7.73;;;6.70;99.90;;;;;;5073047;28;20242;-77
2020/12/21 04:47:20;;;;;;;10.93;7.10;;;6.70;99.90;;;;;;5073186;28;20249;-77
2020/12/21 04:49:47;;;;;;;12.02;6.95;;;6.60;99.90;;;;;;5072593;28;20958;-76
2020/12/21 04:52:13;;;;;;;13.52;7.55;;;6.60;99.90;;;;;;5072546;28;20187;-78
2020/12/21 04:54:40;;;;;;;15.05;8.80;;;6.70;99.90;;;;;;5072928;28;20188;-77
2020/12/21 04:57:06;;;;;;;12.13;7.55;;;6.60;99.90;;;;;;5054649;28;20255;-78
2020/12/21 04:59:32;;;;;;;13.85;7.45;;;6.60;99.90;;;;;;5072233;28;20215;-78
2020/12/21 05:01:57;;;;;;;10.70;7.30;;;6.70;99.90;;;;;;5054092;28;20178;-77
2020/12/21 05:04:24;;;;;;;16.40;7.70;;;6.60;99.90;;;;;;5072052;28;20820;-77
2020/12/21 05:06:53;;;;;;;14.85;8.52;;;6.60;99.90;;;;;;5072100;28;20222;-77
2020/12/21 05:09:23;;;;;;;12.57;7.57;;;6.60;99.90;;;;;;5054403;28;20276;-77
2020/12/21 05:12:03;;;;;;;15.75;7.72;;;6.60;99.90;;;;;;5071748;28;20219;-77
2020/12/21 05:14:34;;;;;;;13.45;8.57;;;6.60;99.90;;;;;;5071900;28;20183;-77
2020/12/21 05:17:29;;;;;;;13.40;7.97;;;6.60;99.90;;;;;;5053605;28;20242;-77
2020/12/21 05:20:05;;;;;;;12.93;7.18;;;6.60;99.90;;;;;;5058911;28;20186;-77
2020/12/21 05:22:30;;;;;;;12.73;7.60;;;6.60;99.90;;;;;;5072322;28;20673;-77
2020/12/21 05:25:08;;;;;;;11.73;7.57;;;6.60;99.90;;;;;;5071672;28;20204;-77
2020/12/21 05:27:35;;;;;;;10.70;8.00;;;6.60;99.90;;;;;;5071820;28;20939;-77
2020/12/21 05:30:00;;;;;;;15.23;8.13;;;6.50;99.90;;;;;;5071850;28;20255;-77
2020/12/21 05:32:26;;;;;;;11.03;7.20;;;6.50;99.90;;;;;;5071414;28;20243;-76
2020/12/21 05:35:03;;;;;;;13.63;8.27;;;6.50;99.90;;;;;;5071756;28;20219;-77
2020/12/21 05:37:29;;;;;;;12.82;7.15;;;6.50;99.90;;;;;;5071849;28;20179;-76
2020/12/21 05:39:56;;;;;;;10.15;6.90;;;6.50;99.90;;;;;;5071535;28;20176;-77
2020/12/21 05:42:23;;;;;;;11.70;7.70;;;6.50;99.90;;;;;;5071378;28;20172;-77
2020/12/21 05:44:58;;;;;;;12.80;7.78;;;6.40;99.90;;;;;;5071761;28;20292;-77
2020/12/21 05:47:26;;;;;;;16.88;7.38;;;6.40;99.90;;;;;;5072407;28;20199;-77
2020/12/21 05:49:57;;;;;;;10.82;6.57;;;6.30;99.90;;;;;;5071815;28;20541;-78
2020/12/21 05:52:37;;;;;;;11.45;6.90;;;6.40;99.90;;;;;;5054021;28;20390;-78
2020/12/21 05:55:06;;;;;;;12.60;7.97;;;6.40;99.90;;;;;;5053486;28;20196;-77
2020/12/21 05:57:32;;;;;;;15.50;8.13;;;6.40;99.90;;;;;;5071418;28;20191;-77
2020/12/21 06:00:02;;;;;;;12.25;6.93;;;6.40;99.90;;;;;;5053394;28;20180;-77
2020/12/21 06:02:31;;;;;;;11.80;7.05;;;6.40;99.90;;;;;;5053202;28;20172;-77
2020/12/21 06:05:03;;;;;;;13.55;7.00;;;6.40;99.90;;;;;;5071472;28;20756;-77
2020/12/21 06:07:31;;;;;;;13.23;7.45;;;6.40;99.90;;;;;;5071206;28;20544;-77
2020/12/21 06:09:59;;;;;;;9.98;7.30;;;6.40;99.90;;;;;;5071341;28;20169;-77
2020/12/21 06:12:28;;;;;;;9.65;7.05;;;6.40;99.90;;;;;;5053206;28;20172;-76
2020/12/21 06:15:00;;;;;;;14.52;8.43;;;6.40;99.90;;;;;;5053919;28;20196;-77
2020/12/21 06:17:28;;;;;;;8.75;6.47;;;6.30;99.90;;;;;;5071468;28;20176;-77
2020/12/21 06:20:05;;;;;;;15.73;9.25;;;6.30;99.90;;;;;;5071370;28;20535;-78
2020/12/21 06:22:30;;;;;;;11.57;7.78;;;6.30;99.90;;;;;;5071204;28;20171;-77
2020/12/21 06:24:56;;;;;;;12.20;6.80;;;6.30;99.90;;;;;;5071459;28;20188;-77
2020/12/21 06:27:22;;;;;;;10.30;6.53;;;6.40;99.90;;;;;;5071390;28;20625;-77
2020/12/21 06:29:58;;;;;;;11.73;6.80;;;6.40;99.90;;;;;;5071419;28;20192;-78
2020/12/21 06:32:30;;;;;;;12.00;7.22;;;6.40;99.90;;;;;;5070990;28;20167;-77
2020/12/21 06:34:55;;;;;;;16.98;7.25;;;6.40;99.90;;;;;;5053630;28;20192;-77
2020/12/21 06:37:21;;;;;;;11.60;6.87;;;6.40;99.90;;;;;;5071305;28;20301;-78
2020/12/21 06:39:58;;;;;;;11.60;6.53;;;6.40;99.90;;;;;;5071608;28;20172;-77
2020/12/21 06:42:24;;;;;;;11.70;7.25;;;6.40;99.90;;;;;;5071693;28;20184;-78
2020/12/21 06:44:54;;;;;;;14.40;7.15;;;6.40;99.90;;;;;;5071047;28;20601;-77
2020/12/21 06:47:20;;;;;;;11.82;7.57;;;6.30;99.90;;;;;;5071676;28;20192;-76
2020/12/21 06:49:45;;;;;;;18.73;8.55;;;6.40;99.90;;;;;;5071218;28;20751;-77
2020/12/21 06:52:11;;;;;;;10.17;6.87;;;6.30;99.90;;;;;;5071495;28;20268;-77
2020/12/21 06:54:37;;;;;;;14.10;7.10;;;6.30;99.90;;;;;;5071226;28;20196;-77
2020/12/21 06:57:05;;;;;;;14.50;8.17;;;6.30;99.90;;;;;;5069947;28;20188;-77
2020/12/21 06:59:31;;;;;;;13.02;6.60;;;6.30;99.90;;;;;;5070541;28;20321;-77
2020/12/21 07:01:57;;;;;;;12.40;7.20;;;6.30;99.90;;;;;;5072080;28;20650;-77
2020/12/21 07:04:30;;;;;;;13.77;7.72;;;6.30;99.90;;;;;;5075000;28;20188;-77
2020/12/21 07:07:06;;;;;;;12.25;6.72;;;6.30;99.90;;;;;;5073420;28;20204;-76
2020/12/21 07:09:34;;;;;;;14.77;7.78;;;6.20;99.90;;;;;;5057355;28;20172;-77
2020/12/21 07:12:02;;;;;;;10.70;6.35;;;6.20;99.90;;;;;;5057251;28;20183;-77
2020/12/21 07:14:29;;;;;;;10.85;7.03;;;6.20;99.90;;;;;;5075223;28;20180;-77
2020/12/21 07:17:06;;;;;;;9.63;6.78;;;6.20;99.90;;;;;;5074758;28;20187;-77
2020/12/21 07:19:33;;;;;;;9.38;5.90;;;6.10;99.90;;;;;;5075409;28;20168;-77
2020/12/21 07:22:00;;;;;;;15.65;8.20;;;6.10;99.90;;;;;;5057173;28;20183;-76
2020/12/21 07:24:26;;;;;;;13.30;7.68;;;6.10;99.90;;;;;;5077445;28;20197;-77
2020/12/21 07:26:52;;;;;;;9.53;6.10;;;6.10;99.90;;;;;;5063138;28;20219;-77
2020/12/21 07:29:19;;;;;;;13.60;7.53;;;6.10;99.90;;;;;;5074970;28;20222;-77
2020/12/21 07:31:44;;;;;;;13.98;7.35;;;6.00;99.90;;;;;;5074497;28;20172;-77
2020/12/21 07:34:10;;;;;;;10.70;7.03;;;6.00;99.90;;;;;;5075430;28;20660;-77
2020/12/21 07:36:38;;;;;;;15.83;7.87;;;6.00;99.90;;;;;;5057360;28;20243;-76
2020/12/21 07:39:08;;;;;;;14.43;7.15;;;6.00;99.90;;;;;;5075466;28;20512;-77
2020/12/21 07:41:37;;;;;;;11.50;7.05;;;6.00;99.90;;;;;;5074914;28;20207;-77
2020/12/21 07:44:15;;;;;;;17.92;8.10;;;6.00;99.90;;;;;;5078104;28;20727;-77
2020/12/21 07:46:51;;;;;;;12.15;6.70;;;6.00;99.90;;;;;;5075192;28;20246;-77
2020/12/21 07:49:18;;;;;;;10.18;6.97;;;6.10;99.90;;;;;;5074836;28;20160;-77
2020/12/21 07:51:44;;;;;;;15.15;7.18;;;6.10;99.90;;;;;;5074479;28;20184;-77
2020/12/21 07:54:13;;;;;;;12.18;7.03;;;6.10;99.90;;;;;;5074819;28;20192;-77
2020/12/21 07:56:38;;;;;;;12.40;7.82;;;6.10;99.90;;;;;;5074264;28;20179;-77
2020/12/21 07:59:11;;;;;;;17.00;8.83;;;6.10;99.90;;;;;;5074117;28;20670;-77
2020/12/21 08:01:39;;;;;;;12.00;6.82;;;6.20;99.90;;;;;;5073243;28;20415;-77
2020/12/21 08:04:16;;;;;;;11.48;7.70;;;6.20;99.90;;;;;;5074413;28;20201;-77
2020/12/21 08:06:42;;;;;;;9.90;6.30;;;6.40;99.90;;;;;;5074928;28;20188;-78
2020/12/21 08:09:09;;;;;;;11.30;6.90;;;6.60;99.90;;;;;;5075211;28;20168;-84
2020/12/21 08:11:38;;;;;;;13.45;7.65;;;6.60;99.90;;;;;;5078523;28;20247;-78
2020/12/21 08:14:07;;;;;;;15.60;8.07;;;6.80;99.90;;;;;;5059587;28;20690;-78
2020/12/21 08:16:32;;;;;;;9.65;6.35;;;6.90;99.90;;;;;;5057232;28;20226;-77
2020/12/21 08:18:59;;;;;;;8.33;6.33;;;7.10;99.90;;;;;;5073234;28;20250;-78
2020/12/21 08:21:25;;;;;;;13.57;8.73;;;7.10;99.90;;;;;;5075137;28;20779;-76
2020/12/21 08:23:56;;;;;;;13.48;7.55;;;7.10;99.90;;;;;;5058107;28;20214;-78
2020/12/21 08:26:23;;;;;;;12.75;7.85;;;7.10;99.90;;;;;;5074095;28;20267;-78
2020/12/21 08:28:49;;;;;;;10.98;7.15;;;6.90;99.90;;;;;;5075340;28;20167;-77
2020/12/21 08:31:23;;;;;;;11.32;8.05;;;6.70;99.90;;;;;;5071356;28;20495;-77
2020/12/21 08:34:01;;;;;;;12.23;6.40;;;6.70;99.90;;;;;;5074988;28;20184;-78
2020/12/21 08:36:30;;;;;;;10.35;6.90;;;6.60;99.90;;;;;;5076306;28;20221;-78
2020/12/21 08:39:20;;;;;;;12.73;7.00;;;6.50;99.90;;;;;;5076194;28;20585;-78
2020/12/21 08:41:47;;;;;;;9.93;6.65;;;6.50;99.90;;;;;;5076089;28;20538;-78
2020/12/21 08:44:23;;;;;;;13.82;7.30;;;6.40;99.90;;;;;;5075286;28;20536;-78
2020/12/21 08:46:59;;;;;;;15.77;7.60;;;6.50;99.90;;;;;;5075846;28;20240;-78
2020/12/21 08:49:27;;;;;;;13.52;8.23;;;6.50;99.90;;;;;;5058258;28;20202;-79
2020/12/21 08:51:58;;;;;;;9.63;6.60;;;6.50;99.90;;;;;;5075903;28;20183;-79
2020/12/21 08:54:24;;;;;;;11.02;6.88;;;6.60;99.90;;;;;;5073853;28;20214;-77
2020/12/21 08:56:51;;;;;;;14.30;8.17;;;6.50;99.90;;;;;;5075023;28;20563;-77
2020/12/21 08:59:18;;;;;;;11.43;7.32;;;6.60;99.90;;;;;;5075023;28;20218;-78
2020/12/21 09:01:44;;;;;;;12.77;7.47;;;6.60;99.90;;;;;;5073950;28;20180;-77
2020/12/21 09:04:10;;;;;;;11.65;7.28;;;6.50;99.90;;;;;;5072833;28;20705;-77
2020/12/21 09:06:38;;;;;;;11.43;7.20;;;6.50;99.90;;;;;;5075375;28;20188;-78
2020/12/21 09:09:06;;;;;;;10.52;7.05;;;6.50;99.90;;;;;;5057669;28;20217;-82
2020/12/21 09:11:32;;;;;;;16.73;6.68;;;6.50;99.90;;;;;;5056471;28;20229;-78
2020/12/21 09:14:00;;;;;;;14.20;6.60;;;6.50;99.90;;;;;;5075159;28;20188;-79
2020/12/21 09:16:27;;;;;;;12.40;7.00;;;6.50;99.90;;;;;;5074888;28;20487;-79
2020/12/21 09:18:57;;;;;;;9.88;7.00;;;6.60;99.90;;;;;;5075378;28;20184;-77
2020/12/21 09:21:25;;;;;;;16.52;7.22;;;6.60;99.90;;;;;;5039686;28;20204;-76
2020/12/21 09:23:53;;;;;;;9.57;6.80;;;6.70;99.90;;;;;;5076642;28;20188;-79
2020/12/21 09:26:19;;;;;;;14.43;7.18;;;6.70;99.90;;;;;;5077641;28;20184;-77
2020/12/21 09:29:03;;;;;;;8.05;5.95;;;6.70;99.90;;;;;;5073560;28;20171;-79
2020/12/21 09:31:29;;;;;;;11.10;6.03;;;6.70;99.90;;;;;;5074100;28;20167;-78
2020/12/21 09:33:57;;;;;;;10.83;7.40;;;6.70;99.90;;;;;;5074294;28;20593;-78
2020/12/21 09:36:23;;;;;;;14.35;8.15;;;6.80;99.90;;;;;;5073908;28;20561;-78
2020/12/21 09:38:50;;;;;;;11.00;6.83;;;6.80;99.90;;;;;;5073723;28;20164;-78
2020/12/21 09:41:18;;;;;;;11.48;6.35;;;6.80;99.90;;;;;;5073590;28;20589;-78
2020/12/21 09:43:45;;;;;;;11.10;6.47;;;6.90;99.90;;;;;;5074546;28;20196;-78
2020/12/21 09:46:23;;;;;;;9.82;6.63;;;6.90;99.90;;;;;;5073578;28;20164;-78
2020/12/21 09:48:49;;;;;;;8.90;6.07;;;6.90;99.90;;;;;;5073603;28;20163;-78
2020/12/21 09:51:16;;;;;;;7.45;6.22;;;6.90;99.90;;;;;;5073776;28;20160;-78
2020/12/21 09:53:42;;;;;;;11.00;6.30;;;6.90;99.90;;;;;;5074182;28;20187;-78
2020/12/21 09:56:15;;;;;;;9.82;6.97;;;7.00;99.90;;;;;;5073290;28;20191;-77
2020/12/21 09:58:42;;;;;;;9.98;5.78;;;6.90;99.90;;;;;;5073866;28;20531;-77
2020/12/21 10:01:11;;;;;;;11.80;6.80;;;6.90;99.90;;;;;;5074600;28;20168;-79
2020/12/21 10:03:40;;;;;;;10.23;6.57;;;6.90;99.90;;;;;;5074692;28;20196;-79
2020/12/21 10:06:10;;;;;;;11.45;6.85;;;6.90;99.90;;;;;;5074970;28;20172;-80
2020/12/21 10:08:36;;;;;;;16.88;6.28;;;7.00;99.90;;;;;;5075596;28;20172;-79
2020/12/21 10:11:03;;;;;;;12.10;6.85;;;7.00;99.90;;;;;;5075463;28;20168;-80
2020/12/21 10:13:30;;;;;;;23.23;8.77;;;7.10;99.90;;;;;;5058186;28;20263;-79
2020/12/21 10:15:55;;;;;;;12.85;6.88;;;7.10;99.90;;;;;;5077125;28;20220;-80
2020/12/21 10:18:21;;;;;;;8.87;6.70;;;7.30;99.90;;;;;;5055646;28;20528;-78
2020/12/21 10:20:50;;;;;;;11.23;5.97;;;7.40;99.90;;;;;;5039519;28;20172;-77
2020/12/21 10:23:15;;;;;;;11.30;7.20;;;7.40;99.90;;;;;;5058298;28;20215;-79
2020/12/21 10:25:42;;;;;;;8.97;6.10;;;7.40;99.90;;;;;;5057389;28;20184;-79
2020/12/21 10:28:08;;;;;;;8.98;6.25;;;7.50;99.90;;;;;;5074815;28;20632;-78
2020/12/21 10:30:33;;;;;;;10.43;6.25;;;7.50;99.90;;;;;;5074873;28;20183;-78
2020/12/21 10:33:01;;;;;;;13.27;6.93;;;7.50;99.90;;;;;;5056239;28;20204;-79
2020/12/21 10:35:27;;;;;;;12.35;6.25;;;7.50;99.90;;;;;;5076454;28;20215;-78
2020/12/21 10:37:56;;;;;;;9.88;7.18;;;7.50;99.90;;;;;;5061343;28;20215;-79
2020/12/21 10:40:21;;;;;;;8.90;5.68;;;7.70;99.90;;;;;;5059744;28;20176;-79
2020/12/21 10:42:47;;;;;;;13.83;5.90;;;7.80;99.90;;;;;;5076682;28;20183;-78
2020/12/21 10:45:13;;;;;;;9.80;6.27;;;7.80;99.90;;;;;;5060927;28;20204;-78
2020/12/21 10:47:38;;;;;;;17.53;6.70;;;7.80;99.90;;;;;;5060410;28;20243;-80
2020/12/21 10:50:04;;;;;;;8.53;5.73;;;7.70;99.90;;;;;;5060973;28;20630;-78
2020/12/21 10:52:30;;;;;;;10.53;6.67;;;7.70;99.90;;;;;;5060741;28;20658;-78
2020/12/21 10:54:58;;;;;;;10.30;6.83;;;7.70;99.90;;;;;;5077396;28;20196;-78
2020/12/21 10:57:24;;;;;;;9.80;6.60;;;7.70;99.90;;;;;;5060615;28;20173;-78
2020/12/21 10:59:49;;;;;;;13.13;7.37;;;7.70;99.90;;;;;;5078465;28;20207;-79
2020/12/21 11:02:15;;;;;;;11.53;6.50;;;7.80;99.90;;;;;;5060908;28;20184;-77
2020/12/21 11:04:41;;;;;;;11.73;6.00;;;7.80;99.90;;;;;;5060139;28;20294;-78
2020/12/21 11:07:06;;;;;;;9.47;5.73;;;7.70;99.90;;;;;;5060789;28;20260;-80
2020/12/21 11:09:32;;;;;;;9.47;6.00;;;7.70;99.90;;;;;;5060101;28;20172;-79
2020/12/21 11:11:58;;;;;;;10.80;5.63;;;7.80;99.90;;;;;;5080043;28;20191;-79
2020/12/21 11:14:23;;;;;;;10.93;7.33;;;7.80;99.90;;;;;;5078156;28;20191;-79
2020/12/21 11:16:51;;;;;;;11.03;5.87;;;7.80;99.90;;;;;;5078782;28;20176;-79
2020/12/21 11:19:20;;;;;;;7.60;5.38;;;7.80;99.90;;;;;;5079575;28;20567;-79
2020/12/21 11:21:46;;;;;;;10.20;6.13;;;7.80;99.90;;;;;;5079793;28;20203;-78
2020/12/21 11:24:11;;;;;;;8.87;6.00;;;7.80;99.90;;;;;;5042349;28;20200;-78
2020/12/21 11:26:37;;;;;;;12.93;6.20;;;7.80;99.90;;;;;;5059779;28;20837;-79
2020/12/21 11:29:05;;;;;;;10.20;5.37;;;7.90;99.90;;;;;;5078671;28;20176;-79
2020/12/21 11:31:32;;;;;;;10.20;5.00;;;7.90;99.90;;;;;;5060543;28;20251;-78
2020/12/21 11:33:57;;;;;;;9.60;5.55;;;7.90;99.90;;;;;;5083350;28;20253;-79
2020/12/21 11:36:24;;;;;;;9.87;6.27;;;7.90;99.90;;;;;;5076947;28;20580;-79
2020/12/21 11:38:50;;;;;;;9.55;5.80;;;8.00;99.90;;;;;;5078502;28;20475;-80
2020/12/21 11:41:15;;;;;;;10.67;5.67;;;8.00;99.90;;;;;;5043397;28;20179;-79
2020/12/21 11:43:41;;;;;;;9.40;5.90;;;8.00;99.90;;;;;;5077956;28;20287;-80
2020/12/21 11:46:07;;;;;;;10.90;5.50;;;8.00;99.90;;;;;;5077489;28;20172;-81
2020/12/21 11:48:32;;;;;;;11.83;5.80;;;8.00;99.90;;;;;;5076791;28;20208;-78
2020/12/21 11:50:58;;;;;;;9.83;5.50;;;8.00;99.90;;;;;;5041633;28;20655;-79
2020/12/21 11:53:24;;;;;;;12.07;6.37;;;8.00;99.90;;;;;;5075175;28;20858;-79
2020/12/21 11:55:49;;;;;;;11.20;4.80;;;8.00;99.90;;;;;;5042004;28;20278;-79
2020/12/21 11:58:15;;;;;;;10.03;5.83;;;7.90;99.90;;;;;;5059307;28;20184;-77
2020/12/21 12:00:41;;;;;;;10.90;6.30;;;8.00;99.90;;;;;;5081643;28;20262;-79
2020/12/21 12:03:06;;;;;;;7.77;4.67;;;8.00;99.90;;;;;;5052058;28;20244;-79
2020/12/21 12:05:32;;;;;;;10.53;5.70;;;8.00;99.90;;;;;;5079910;28;20172;-77
2020/12/21 12:07:58;;;;;;;8.07;4.60;;;8.00;99.90;;;;;;5059209;28;20208;-79
2020/12/21 12:10:23;;;;;;;12.10;6.03;;;7.90;99.90;;;;;;5059047;28;20172;-78
2020/12/21 12:12:49;;;;;;;8.57;5.10;;;8.00;99.90;;;;;;5056251;28;20649;-79
2020/12/21 12:15:15;;;;;;;7.10;4.70;;;8.00;99.90;;;;;;5075885;28;20570;-79
2020/12/21 12:17:40;;;;;;;8.63;5.17;;;7.90;99.90;;;;;;5075416;28;20179;-80
2020/12/21 12:20:06;;;;;;;8.17;5.03;;;7.90;99.90;;;;;;5057080;28;20187;-78
2020/12/21 12:22:32;;;;;;;6.90;4.67;;;7.90;99.90;;;;;;5076156;28;20603;-79
2020/12/21 12:24:57;;;;;;;8.13;5.53;;;7.90;99.90;;;;;;5055935;28;20283;-79
2020/12/21 12:27:23;;;;;;;9.13;5.70;;;7.90;99.90;;;;;;5073041;28;20515;-77
2020/12/21 12:29:49;;;;;;;9.17;5.20;;;7.80;99.90;;;;;;5074789;28;20253;-76
2020/12/21 12:32:14;;;;;;;7.40;4.63;;;7.90;99.90;;;;;;5071761;28;20191;-76
2020/12/21 12:34:41;;;;;;;10.33;5.70;;;7.80;99.90;;;;;;5055575;28;20207;-77
2020/12/21 12:37:07;;;;;;;10.10;6.45;;;7.80;99.90;;;;;;5073715;28;20226;-76
2020/12/21 12:39:32;;;;;;;7.57;4.73;;;7.80;99.90;;;;;;5073420;28;20168;-76
2020/12/21 12:42:01;;;;;;;10.60;5.73;;;7.70;99.90;;;;;;5073010;28;20187;-78
2020/12/21 12:44:27;;;;;;;32.30;17.23;;;7.70;99.90;;;;;;5073391;28;20202;-77
2020/12/21 12:46:52;;;;;;;14.20;7.83;;;7.90;99.90;;;;;;5072983;28;20211;-77
2020/12/21 12:49:20;;;;;;;8.90;5.60;;;8.30;99.90;;;;;;5074061;28;20657;-81